sensor_id;sensor_type;location;lat;lon;timestamp;P1;durP1;ratioP1;P2;durP2;ratioP2
16543;SDS011;8384;47.996;7.786;2023-04-07T00:02:23;2.80;;;2.42;;
16543;SDS011;8384;47.996;7.786;2023-04-07T00:04:49;2.90;;;2.50;;
16543;SDS011;8384;47.996;7.786;2023-04-07T00:07:14;3.30;;;2.50;;
16543;SDS011;8384;47.996;7.786;2023-04-07T00:09:40;3.10;;;2.80;;
16543;SDS011;8384;47.996;7.786;2023-04-07T00:12:05;2.97;;;2.67;;
16543;SDS011;8384;47.996;7.786;2023-04-07T00:14:30;3.00;;;2.60;;
16543;SDS011;8384;47.996;7.786;2023-04-07T00:16:56;2.80;;;2.50;;
16543;SDS011;8384;47.996;7.786;2023-04-07T00:19:21;2.80;;;2.60;;
16543;SDS011;8384;47.996;7.786;2023-04-07T00:21:46;3.00;;;2.70;;
16543;SDS011;8384;47.996;7.786;2023-04-07T00:24:11;2.63;;;2.43;;
16543;SDS011;8384;47.996;7.786;2023-04-07T00:26:37;2.97;;;2.70;;
16543;SDS011;8384;47.996;7.786;2023-04-07T00:29:02;2.60;;;2.40;;
16543;SDS011;8384;47.996;7.786;2023-04-07T00:31:28;2.40;;;2.20;;
16543;SDS011;8384;47.996;7.786;2023-04-07T00:33:53;3.30;;;2.33;;
16543;SDS011;8384;47.996;7.786;2023-04-07T00:36:19;2.80;;;2.38;;
16543;SDS011;8384;47.996;7.786;2023-04-07T00:38:45;2.43;;;2.30;;
16543;SDS011;8384;47.996;7.786;2023-04-07T00:41:10;2.53;;;2.30;;
16543;SDS011;8384;47.996;7.786;2023-04-07T00:43:35;2.73;;;2.30;;
16543;SDS011;8384;47.996;7.786;2023-04-07T00:46:00;3.03;;;2.40;;
16543;SDS011;8384;47.996;7.786;2023-04-07T00:48:26;2.50;;;2.30;;
16543;SDS011;8384;47.996;7.786;2023-04-07T00:50:51;3.10;;;2.37;;
16543;SDS011;8384;47.996;7.786;2023-04-07T00:53:17;2.60;;;2.40;;
16543;SDS011;8384;47.996;7.786;2023-04-07T00:55:42;2.53;;;2.33;;
16543;SDS011;8384;47.996;7.786;2023-04-07T00:58:07;2.40;;;2.20;;
16543;SDS011;8384;47.996;7.786;2023-04-07T01:00:36;3.15;;;2.35;;
16543;SDS011;8384;47.996;7.786;2023-04-07T01:03:11;2.78;;;2.17;;
16543;SDS011;8384;47.996;7.786;2023-04-07T01:05:56;2.50;;;2.30;;
16543;SDS011;8384;47.996;7.786;2023-04-07T01:13:56;2.42;;;2.10;;
16543;SDS011;8384;47.996;7.786;2023-04-07T01:16:31;2.40;;;2.20;;
16543;SDS011;8384;47.996;7.786;2023-04-07T01:21:45;2.78;;;2.45;;
16543;SDS011;8384;47.996;7.786;2023-04-07T01:30:07;2.60;;;2.40;;
16543;SDS011;8384;47.996;7.786;2023-04-07T01:32:35;2.65;;;2.22;;
16543;SDS011;8384;47.996;7.786;2023-04-07T01:35:03;2.60;;;2.30;;
16543;SDS011;8384;47.996;7.786;2023-04-07T01:37:33;2.65;;;2.08;;
16543;SDS011;8384;47.996;7.786;2023-04-07T01:40:00;2.30;;;2.10;;
16543;SDS011;8384;47.996;7.786;2023-04-07T01:42:26;2.95;;;2.28;;
16543;SDS011;8384;47.996;7.786;2023-04-07T01:44:52;2.30;;;2.10;;
16543;SDS011;8384;47.996;7.786;2023-04-07T01:47:18;2.60;;;2.40;;
16543;SDS011;8384;47.996;7.786;2023-04-07T01:49:44;2.37;;;2.13;;
16543;SDS011;8384;47.996;7.786;2023-04-07T01:52:10;2.47;;;2.28;;
16543;SDS011;8384;47.996;7.786;2023-04-07T01:54:37;2.42;;;2.22;;
16543;SDS011;8384;47.996;7.786;2023-04-07T01:57:03;2.40;;;2.20;;
16543;SDS011;8384;47.996;7.786;2023-04-07T01:59:28;3.50;;;2.47;;
16543;SDS011;8384;47.996;7.786;2023-04-07T02:01:55;2.40;;;2.20;;
16543;SDS011;8384;47.996;7.786;2023-04-07T02:04:21;3.70;;;2.50;;
16543;SDS011;8384;47.996;7.786;2023-04-07T02:07:13;2.88;;;2.30;;
16543;SDS011;8384;47.996;7.786;2023-04-07T02:09:42;2.53;;;2.33;;
16543;SDS011;8384;47.996;7.786;2023-04-07T02:12:10;2.50;;;2.30;;
16543;SDS011;8384;47.996;7.786;2023-04-07T02:14:38;2.50;;;2.30;;
16543;SDS011;8384;47.996;7.786;2023-04-07T02:17:04;2.42;;;2.22;;
16543;SDS011;8384;47.996;7.786;2023-04-07T02:19:31;2.88;;;2.35;;
16543;SDS011;8384;47.996;7.786;2023-04-07T02:21:58;2.50;;;2.30;;
16543;SDS011;8384;47.996;7.786;2023-04-07T02:24:25;2.65;;;2.30;;
16543;SDS011;8384;47.996;7.786;2023-04-07T02:26:50;2.50;;;2.30;;
16543;SDS011;8384;47.996;7.786;2023-04-07T02:29:15;2.40;;;2.20;;
16543;SDS011;8384;47.996;7.786;2023-04-07T02:31:41;2.57;;;2.37;;
16543;SDS011;8384;47.996;7.786;2023-04-07T02:34:06;2.90;;;2.60;;
16543;SDS011;8384;47.996;7.786;2023-04-07T02:36:31;3.00;;;2.40;;
16543;SDS011;8384;47.996;7.786;2023-04-07T02:38:57;2.60;;;2.40;;
16543;SDS011;8384;47.996;7.786;2023-04-07T02:41:22;2.70;;;2.50;;
16543;SDS011;8384;47.996;7.786;2023-04-07T02:43:47;2.57;;;2.37;;
16543;SDS011;8384;47.996;7.786;2023-04-07T02:46:12;3.20;;;2.60;;
16543;SDS011;8384;47.996;7.786;2023-04-07T02:48:38;2.90;;;2.50;;
16543;SDS011;8384;47.996;7.786;2023-04-07T02:51:03;2.80;;;2.27;;
16543;SDS011;8384;47.996;7.786;2023-04-07T02:53:28;2.90;;;2.60;;
16543;SDS011;8384;47.996;7.786;2023-04-07T02:55:54;2.37;;;2.17;;
16543;SDS011;8384;47.996;7.786;2023-04-07T02:58:19;2.40;;;2.20;;
16543;SDS011;8384;47.996;7.786;2023-04-07T03:00:45;2.83;;;2.20;;
16543;SDS011;8384;47.996;7.786;2023-04-07T03:03:12;2.50;;;2.00;;
16543;SDS011;8384;47.996;7.786;2023-04-07T03:05:37;2.30;;;1.97;;
16543;SDS011;8384;47.996;7.786;2023-04-07T03:08:02;2.03;;;1.90;;
16543;SDS011;8384;47.996;7.786;2023-04-07T03:10:28;3.43;;;2.43;;
16543;SDS011;8384;47.996;7.786;2023-04-07T03:12:54;2.30;;;2.10;;
16543;SDS011;8384;47.996;7.786;2023-04-07T03:15:19;2.47;;;2.28;;
16543;SDS011;8384;47.996;7.786;2023-04-07T03:17:45;2.37;;;2.17;;
16543;SDS011;8384;47.996;7.786;2023-04-07T03:20:10;2.10;;;1.90;;
16543;SDS011;8384;47.996;7.786;2023-04-07T03:22:36;2.80;;;2.00;;
16543;SDS011;8384;47.996;7.786;2023-04-07T03:25:01;2.60;;;1.83;;
16543;SDS011;8384;47.996;7.786;2023-04-07T03:27:26;2.20;;;2.00;;
16543;SDS011;8384;47.996;7.786;2023-04-07T03:29:51;2.40;;;2.20;;
16543;SDS011;8384;47.996;7.786;2023-04-07T03:32:17;2.67;;;2.45;;
16543;SDS011;8384;47.996;7.786;2023-04-07T03:34:42;2.42;;;2.10;;
16543;SDS011;8384;47.996;7.786;2023-04-07T03:37:08;2.50;;;2.30;;
16543;SDS011;8384;47.996;7.786;2023-04-07T03:39:33;2.60;;;2.40;;
16543;SDS011;8384;47.996;7.786;2023-04-07T03:42:01;3.08;;;2.72;;
16543;SDS011;8384;47.996;7.786;2023-04-07T03:44:26;3.30;;;3.00;;
16543;SDS011;8384;47.996;7.786;2023-04-07T03:46:52;2.90;;;2.70;;
16543;SDS011;8384;47.996;7.786;2023-04-07T03:49:17;2.90;;;2.40;;
16543;SDS011;8384;47.996;7.786;2023-04-07T03:51:42;2.60;;;2.40;;
16543;SDS011;8384;47.996;7.786;2023-04-07T03:54:08;2.80;;;2.47;;
16543;SDS011;8384;47.996;7.786;2023-04-07T03:56:34;3.17;;;2.50;;
16543;SDS011;8384;47.996;7.786;2023-04-07T03:58:59;2.60;;;2.40;;
16543;SDS011;8384;47.996;7.786;2023-04-07T04:01:25;3.17;;;2.60;;
16543;SDS011;8384;47.996;7.786;2023-04-07T04:03:50;3.08;;;2.60;;
16543;SDS011;8384;47.996;7.786;2023-04-07T04:06:15;3.00;;;2.45;;
16543;SDS011;8384;47.996;7.786;2023-04-07T04:08:40;2.88;;;2.67;;
16543;SDS011;8384;47.996;7.786;2023-04-07T04:11:06;2.90;;;2.70;;
16543;SDS011;8384;47.996;7.786;2023-04-07T04:13:31;2.80;;;2.60;;
16543;SDS011;8384;47.996;7.786;2023-04-07T04:15:56;2.83;;;2.63;;
16543;SDS011;8384;47.996;7.786;2023-04-07T04:18:22;2.87;;;2.60;;
16543;SDS011;8384;47.996;7.786;2023-04-07T04:20:47;3.00;;;2.70;;
16543;SDS011;8384;47.996;7.786;2023-04-07T04:23:12;6.28;;;4.97;;
16543;SDS011;8384;47.996;7.786;2023-04-07T04:25:38;3.78;;;3.47;;
16543;SDS011;8384;47.996;7.786;2023-04-07T04:28:04;3.00;;;2.80;;
16543;SDS011;8384;47.996;7.786;2023-04-07T04:30:30;3.40;;;3.00;;
16543;SDS011;8384;47.996;7.786;2023-04-07T04:32:55;2.83;;;2.63;;
16543;SDS011;8384;47.996;7.786;2023-04-07T04:35:21;3.03;;;2.80;;
16543;SDS011;8384;47.996;7.786;2023-04-07T04:37:46;3.10;;;2.90;;
16543;SDS011;8384;47.996;7.786;2023-04-07T04:40:11;2.70;;;2.50;;
16543;SDS011;8384;47.996;7.786;2023-04-07T04:42:38;3.08;;;2.72;;
16543;SDS011;8384;47.996;7.786;2023-04-07T04:45:03;3.10;;;2.80;;
16543;SDS011;8384;47.996;7.786;2023-04-07T04:47:29;3.05;;;2.78;;
16543;SDS011;8384;47.996;7.786;2023-04-07T04:49:55;2.90;;;2.70;;
16543;SDS011;8384;47.996;7.786;2023-04-07T04:52:20;3.47;;;2.92;;
16543;SDS011;8384;47.996;7.786;2023-04-07T04:54:45;2.92;;;2.67;;
16543;SDS011;8384;47.996;7.786;2023-04-07T04:57:11;3.28;;;2.97;;
16543;SDS011;8384;47.996;7.786;2023-04-07T04:59:36;2.78;;;2.58;;
16543;SDS011;8384;47.996;7.786;2023-04-07T05:02:01;3.05;;;2.75;;
16543;SDS011;8384;47.996;7.786;2023-04-07T05:04:27;3.40;;;3.10;;
16543;SDS011;8384;47.996;7.786;2023-04-07T05:06:52;2.67;;;2.47;;
16543;SDS011;8384;47.996;7.786;2023-04-07T05:09:17;2.92;;;2.72;;
16543;SDS011;8384;47.996;7.786;2023-04-07T05:11:42;3.47;;;3.17;;
16543;SDS011;8384;47.996;7.786;2023-04-07T05:14:08;3.30;;;3.00;;
16543;SDS011;8384;47.996;7.786;2023-04-07T05:16:34;3.20;;;2.90;;
16543;SDS011;8384;47.996;7.786;2023-04-07T05:18:59;3.13;;;2.85;;
16543;SDS011;8384;47.996;7.786;2023-04-07T05:21:25;3.20;;;2.50;;
16543;SDS011;8384;47.996;7.786;2023-04-07T05:23:51;2.90;;;2.70;;
16543;SDS011;8384;47.996;7.786;2023-04-07T05:26:16;3.20;;;2.97;;
16543;SDS011;8384;47.996;7.786;2023-04-07T05:28:41;3.20;;;2.90;;
16543;SDS011;8384;47.996;7.786;2023-04-07T05:31:07;3.33;;;3.03;;
16543;SDS011;8384;47.996;7.786;2023-04-07T05:33:32;3.10;;;2.90;;
16543;SDS011;8384;47.996;7.786;2023-04-07T05:35:58;3.17;;;2.90;;
16543;SDS011;8384;47.996;7.786;2023-04-07T05:38:23;3.27;;;2.97;;
16543;SDS011;8384;47.996;7.786;2023-04-07T05:40:48;3.20;;;2.90;;
16543;SDS011;8384;47.996;7.786;2023-04-07T05:43:14;3.37;;;3.07;;
16543;SDS011;8384;47.996;7.786;2023-04-07T05:45:39;3.20;;;2.90;;
16543;SDS011;8384;47.996;7.786;2023-04-07T05:48:04;3.00;;;2.80;;
16543;SDS011;8384;47.996;7.786;2023-04-07T05:50:30;2.97;;;2.73;;
16543;SDS011;8384;47.996;7.786;2023-04-07T05:52:55;3.20;;;2.80;;
16543;SDS011;8384;47.996;7.786;2023-04-07T05:55:20;3.37;;;3.07;;
16543;SDS011;8384;47.996;7.786;2023-04-07T05:57:45;3.07;;;2.60;;
16543;SDS011;8384;47.996;7.786;2023-04-07T06:00:11;2.90;;;2.40;;
16543;SDS011;8384;47.996;7.786;2023-04-07T06:02:37;3.00;;;2.80;;
16543;SDS011;8384;47.996;7.786;2023-04-07T06:05:04;3.10;;;2.90;;
16543;SDS011;8384;47.996;7.786;2023-04-07T06:07:29;2.88;;;2.65;;
16543;SDS011;8384;47.996;7.786;2023-04-07T06:09:55;3.43;;;3.13;;
16543;SDS011;8384;47.996;7.786;2023-04-07T06:12:20;3.60;;;3.10;;
16543;SDS011;8384;47.996;7.786;2023-04-07T06:14:46;3.30;;;3.00;;
16543;SDS011;8384;47.996;7.786;2023-04-07T06:17:16;3.20;;;2.90;;
16543;SDS011;8384;47.996;7.786;2023-04-07T06:19:42;3.13;;;2.83;;
16543;SDS011;8384;47.996;7.786;2023-04-07T06:22:07;3.08;;;2.88;;
16543;SDS011;8384;47.996;7.786;2023-04-07T06:24:32;3.70;;;3.30;;
16543;SDS011;8384;47.996;7.786;2023-04-07T06:26:57;3.20;;;2.90;;
16543;SDS011;8384;47.996;7.786;2023-04-07T06:29:25;3.27;;;2.70;;
16543;SDS011;8384;47.996;7.786;2023-04-07T06:31:50;3.08;;;2.83;;
16543;SDS011;8384;47.996;7.786;2023-04-07T06:34:16;3.17;;;2.90;;
16543;SDS011;8384;47.996;7.786;2023-04-07T06:36:41;3.47;;;3.17;;
16543;SDS011;8384;47.996;7.786;2023-04-07T06:39:06;3.83;;;2.80;;
16543;SDS011;8384;47.996;7.786;2023-04-07T06:41:32;2.90;;;2.70;;
16543;SDS011;8384;47.996;7.786;2023-04-07T06:43:57;3.50;;;3.20;;
16543;SDS011;8384;47.996;7.786;2023-04-07T06:46:22;3.67;;;3.37;;
16543;SDS011;8384;47.996;7.786;2023-04-07T06:48:50;3.80;;;3.20;;
16543;SDS011;8384;47.996;7.786;2023-04-07T06:51:16;4.32;;;3.97;;
16543;SDS011;8384;47.996;7.786;2023-04-07T06:53:41;4.00;;;3.70;;
16543;SDS011;8384;47.996;7.786;2023-04-07T06:56:09;4.10;;;3.80;;
16543;SDS011;8384;47.996;7.786;2023-04-07T06:58:35;4.15;;;3.83;;
16543;SDS011;8384;47.996;7.786;2023-04-07T07:01:02;4.43;;;4.00;;
16543;SDS011;8384;47.996;7.786;2023-04-07T07:03:28;4.50;;;4.00;;
16543;SDS011;8384;47.996;7.786;2023-04-07T07:05:55;3.90;;;3.60;;
16543;SDS011;8384;47.996;7.786;2023-04-07T07:08:21;3.80;;;3.50;;
16543;SDS011;8384;47.996;7.786;2023-04-07T07:10:47;3.85;;;3.55;;
16543;SDS011;8384;47.996;7.786;2023-04-07T07:13:12;4.27;;;3.83;;
16543;SDS011;8384;47.996;7.786;2023-04-07T07:15:37;3.97;;;3.67;;
16543;SDS011;8384;47.996;7.786;2023-04-07T07:18:02;4.00;;;3.70;;
16543;SDS011;8384;47.996;7.786;2023-04-07T07:20:28;3.90;;;3.60;;
16543;SDS011;8384;47.996;7.786;2023-04-07T07:22:53;4.20;;;3.80;;
16543;SDS011;8384;47.996;7.786;2023-04-07T07:25:18;4.27;;;3.87;;
16543;SDS011;8384;47.996;7.786;2023-04-07T07:27:44;4.10;;;3.70;;
16543;SDS011;8384;47.996;7.786;2023-04-07T07:30:09;4.40;;;4.00;;
16543;SDS011;8384;47.996;7.786;2023-04-07T07:32:35;3.92;;;3.63;;
16543;SDS011;8384;47.996;7.786;2023-04-07T07:35:00;4.60;;;4.20;;
16543;SDS011;8384;47.996;7.786;2023-04-07T07:37:25;4.43;;;4.03;;
16543;SDS011;8384;47.996;7.786;2023-04-07T07:39:52;4.55;;;4.15;;
16543;SDS011;8384;47.996;7.786;2023-04-07T07:42:17;4.47;;;4.10;;
16543;SDS011;8384;47.996;7.786;2023-04-07T07:44:42;4.60;;;4.20;;
16543;SDS011;8384;47.996;7.786;2023-04-07T07:47:08;4.20;;;3.90;;
16543;SDS011;8384;47.996;7.786;2023-04-07T07:49:33;4.90;;;4.50;;
16543;SDS011;8384;47.996;7.786;2023-04-07T07:51:59;4.90;;;4.50;;
16543;SDS011;8384;47.996;7.786;2023-04-07T07:54:24;4.63;;;4.22;;
16543;SDS011;8384;47.996;7.786;2023-04-07T07:56:50;4.22;;;3.92;;
16543;SDS011;8384;47.996;7.786;2023-04-07T07:59:16;4.85;;;4.40;;
16543;SDS011;8384;47.996;7.786;2023-04-07T08:01:41;4.47;;;4.17;;
16543;SDS011;8384;47.996;7.786;2023-04-07T08:04:08;4.50;;;4.10;;
16543;SDS011;8384;47.996;7.786;2023-04-07T08:06:33;4.43;;;4.05;;
16543;SDS011;8384;47.996;7.786;2023-04-07T08:08:58;4.77;;;4.37;;
16543;SDS011;8384;47.996;7.786;2023-04-07T08:11:24;4.80;;;4.40;;
16543;SDS011;8384;47.996;7.786;2023-04-07T08:13:49;4.50;;;4.10;;
16543;SDS011;8384;47.996;7.786;2023-04-07T08:16:14;4.40;;;4.10;;
16543;SDS011;8384;47.996;7.786;2023-04-07T08:18:40;5.33;;;4.83;;
16543;SDS011;8384;47.996;7.786;2023-04-07T08:21:05;5.30;;;4.90;;
16543;SDS011;8384;47.996;7.786;2023-04-07T08:23:31;5.50;;;5.00;;
16543;SDS011;8384;47.996;7.786;2023-04-07T08:25:56;5.43;;;5.00;;
16543;SDS011;8384;47.996;7.786;2023-04-07T08:28:22;5.37;;;4.93;;
16543;SDS011;8384;47.996;7.786;2023-04-07T08:30:50;5.88;;;5.40;;
16543;SDS011;8384;47.996;7.786;2023-04-07T08:33:15;5.67;;;5.27;;
16543;SDS011;8384;47.996;7.786;2023-04-07T08:35:40;5.77;;;5.37;;
16543;SDS011;8384;47.996;7.786;2023-04-07T08:38:06;6.30;;;5.70;;
16543;SDS011;8384;47.996;7.786;2023-04-07T08:40:32;5.55;;;5.07;;
16543;SDS011;8384;47.996;7.786;2023-04-07T08:42:58;6.15;;;5.65;;
16543;SDS011;8384;47.996;7.786;2023-04-07T08:45:24;6.13;;;5.65;;
16543;SDS011;8384;47.996;7.786;2023-04-07T08:47:51;6.38;;;5.88;;
16543;SDS011;8384;47.996;7.786;2023-04-07T08:50:20;6.70;;;6.10;;
16543;SDS011;8384;47.996;7.786;2023-04-07T08:52:52;7.10;;;6.40;;
16543;SDS011;8384;47.996;7.786;2023-04-07T08:55:19;6.43;;;5.93;;
16543;SDS011;8384;47.996;7.786;2023-04-07T08:57:44;5.90;;;5.50;;
16543;SDS011;8384;47.996;7.786;2023-04-07T09:00:11;6.80;;;6.30;;
16543;SDS011;8384;47.996;7.786;2023-04-07T09:02:38;6.18;;;5.78;;
16543;SDS011;8384;47.996;7.786;2023-04-07T09:05:05;6.47;;;5.97;;
16543;SDS011;8384;47.996;7.786;2023-04-07T09:07:33;5.82;;;5.32;;
16543;SDS011;8384;47.996;7.786;2023-04-07T09:09:59;5.00;;;4.60;;
16543;SDS011;8384;47.996;7.786;2023-04-07T09:12:28;4.82;;;4.53;;
16543;SDS011;8384;47.996;7.786;2023-04-07T09:14:54;4.90;;;4.50;;
16543;SDS011;8384;47.996;7.786;2023-04-07T09:17:20;4.20;;;3.90;;
16543;SDS011;8384;47.996;7.786;2023-04-07T09:19:46;4.18;;;3.88;;
16543;SDS011;8384;47.996;7.786;2023-04-07T09:22:11;4.25;;;3.95;;
16543;SDS011;8384;47.996;7.786;2023-04-07T09:24:38;3.95;;;3.65;;
16543;SDS011;8384;47.996;7.786;2023-04-07T09:29:41;3.42;;;3.20;;
16543;SDS011;8384;47.996;7.786;2023-04-07T09:32:07;3.00;;;2.80;;
16543;SDS011;8384;47.996;7.786;2023-04-07T09:34:34;2.80;;;2.60;;
16543;SDS011;8384;47.996;7.786;2023-04-07T09:37:01;2.67;;;2.43;;
16543;SDS011;8384;47.996;7.786;2023-04-07T09:39:27;2.17;;;2.08;;
16543;SDS011;8384;47.996;7.786;2023-04-07T09:41:53;2.17;;;2.00;;
16543;SDS011;8384;47.996;7.786;2023-04-07T09:44:19;1.70;;;1.60;;
16543;SDS011;8384;47.996;7.786;2023-04-07T09:49:15;2.28;;;1.80;;
16543;SDS011;8384;47.996;7.786;2023-04-07T09:51:56;2.00;;;1.90;;
16543;SDS011;8384;47.996;7.786;2023-04-07T09:54:41;1.90;;;1.80;;
16543;SDS011;8384;47.996;7.786;2023-04-07T09:57:07;2.00;;;1.80;;
16543;SDS011;8384;47.996;7.786;2023-04-07T09:59:34;1.80;;;1.70;;
16543;SDS011;8384;47.996;7.786;2023-04-07T10:02:01;2.05;;;1.85;;
16543;SDS011;8384;47.996;7.786;2023-04-07T10:04:27;2.20;;;2.00;;
16543;SDS011;8384;47.996;7.786;2023-04-07T10:06:56;2.00;;;1.90;;
16543;SDS011;8384;47.996;7.786;2023-04-07T10:09:23;2.00;;;1.90;;
16543;SDS011;8384;47.996;7.786;2023-04-07T10:11:50;1.90;;;1.80;;
16543;SDS011;8384;47.996;7.786;2023-04-07T10:14:17;1.70;;;1.60;;
16543;SDS011;8384;47.996;7.786;2023-04-07T10:16:45;1.60;;;1.50;;
16543;SDS011;8384;47.996;7.786;2023-04-07T10:19:11;1.55;;;1.45;;
16543;SDS011;8384;47.996;7.786;2023-04-07T10:21:38;1.85;;;1.75;;
16543;SDS011;8384;47.996;7.786;2023-04-07T10:26:50;1.83;;;1.73;;
16543;SDS011;8384;47.996;7.786;2023-04-07T10:29:19;1.80;;;1.70;;
16543;SDS011;8384;47.996;7.786;2023-04-07T10:31:45;1.90;;;1.80;;
16543;SDS011;8384;47.996;7.786;2023-04-07T10:34:11;1.90;;;1.80;;
16543;SDS011;8384;47.996;7.786;2023-04-07T10:37:06;1.93;;;1.83;;
16543;SDS011;8384;47.996;7.786;2023-04-07T10:39:34;1.90;;;1.80;;
16543;SDS011;8384;47.996;7.786;2023-04-07T10:42:01;1.80;;;1.70;;
16543;SDS011;8384;47.996;7.786;2023-04-07T10:47:04;1.50;;;1.40;;
16543;SDS011;8384;47.996;7.786;2023-04-07T10:49:34;1.30;;;1.20;;
16543;SDS011;8384;47.996;7.786;2023-04-07T10:54:40;1.52;;;1.42;;
16543;SDS011;8384;47.996;7.786;2023-04-07T10:57:07;1.52;;;1.42;;
16543;SDS011;8384;47.996;7.786;2023-04-07T10:59:37;1.40;;;1.30;;
16543;SDS011;8384;47.996;7.786;2023-04-07T11:04:39;2.40;;;1.40;;
16543;SDS011;8384;47.996;7.786;2023-04-07T11:07:09;1.45;;;1.20;;
16543;SDS011;8384;47.996;7.786;2023-04-07T11:09:35;1.38;;;1.27;;
16543;SDS011;8384;47.996;7.786;2023-04-07T11:12:00;1.40;;;1.27;;
16543;SDS011;8384;47.996;7.786;2023-04-07T11:14:30;1.17;;;1.17;;
16543;SDS011;8384;47.996;7.786;2023-04-07T11:16:57;1.30;;;1.20;;
16543;SDS011;8384;47.996;7.786;2023-04-07T11:19:24;1.30;;;1.30;;
16543;SDS011;8384;47.996;7.786;2023-04-07T11:21:49;1.00;;;1.00;;
16543;SDS011;8384;47.996;7.786;2023-04-07T11:24:30;1.40;;;1.00;;
16543;SDS011;8384;47.996;7.786;2023-04-07T11:27:04;1.10;;;1.00;;
16543;SDS011;8384;47.996;7.786;2023-04-07T11:29:31;1.10;;;1.00;;
16543;SDS011;8384;47.996;7.786;2023-04-07T11:31:58;0.93;;;0.90;;
16543;SDS011;8384;47.996;7.786;2023-04-07T11:34:28;1.13;;;1.05;;
16543;SDS011;8384;47.996;7.786;2023-04-07T11:36:54;0.77;;;0.77;;
16543;SDS011;8384;47.996;7.786;2023-04-07T11:39:23;0.80;;;0.80;;
16543;SDS011;8384;47.996;7.786;2023-04-07T11:41:55;1.30;;;0.90;;
16543;SDS011;8384;47.996;7.786;2023-04-07T11:44:21;0.95;;;0.95;;
16543;SDS011;8384;47.996;7.786;2023-04-07T11:49:18;1.00;;;1.00;;
16543;SDS011;8384;47.996;7.786;2023-04-07T11:51:44;1.20;;;1.10;;
16543;SDS011;8384;47.996;7.786;2023-04-07T11:54:11;1.23;;;1.20;;
16543;SDS011;8384;47.996;7.786;2023-04-07T11:56:46;1.35;;;1.25;;
16543;SDS011;8384;47.996;7.786;2023-04-07T11:59:19;1.30;;;1.20;;
16543;SDS011;8384;47.996;7.786;2023-04-07T12:01:48;1.42;;;1.30;;
16543;SDS011;8384;47.996;7.786;2023-04-07T12:04:15;1.45;;;1.35;;
16543;SDS011;8384;47.996;7.786;2023-04-07T12:06:41;1.40;;;1.30;;
16543;SDS011;8384;47.996;7.786;2023-04-07T12:09:29;1.58;;;1.48;;
16543;SDS011;8384;47.996;7.786;2023-04-07T12:11:56;1.50;;;1.40;;
16543;SDS011;8384;47.996;7.786;2023-04-07T12:14:23;1.83;;;1.65;;
16543;SDS011;8384;47.996;7.786;2023-04-07T12:16:49;1.70;;;1.60;;
16543;SDS011;8384;47.996;7.786;2023-04-07T12:19:14;1.70;;;1.60;;
16543;SDS011;8384;47.996;7.786;2023-04-07T12:21:40;2.57;;;1.67;;
16543;SDS011;8384;47.996;7.786;2023-04-07T12:24:05;1.60;;;1.50;;
16543;SDS011;8384;47.996;7.786;2023-04-07T12:26:31;1.80;;;1.70;;
16543;SDS011;8384;47.996;7.786;2023-04-07T12:28:56;2.00;;;1.90;;
16543;SDS011;8384;47.996;7.786;2023-04-07T12:31:22;2.10;;;2.00;;
16543;SDS011;8384;47.996;7.786;2023-04-07T12:33:48;1.80;;;1.70;;
16543;SDS011;8384;47.996;7.786;2023-04-07T12:36:13;2.10;;;2.00;;
16543;SDS011;8384;47.996;7.786;2023-04-07T12:38:38;2.00;;;1.90;;
16543;SDS011;8384;47.996;7.786;2023-04-07T12:41:04;2.35;;;2.15;;
16543;SDS011;8384;47.996;7.786;2023-04-07T12:43:29;1.95;;;1.85;;
16543;SDS011;8384;47.996;7.786;2023-04-07T12:45:55;1.90;;;1.80;;
16543;SDS011;8384;47.996;7.786;2023-04-07T12:48:21;2.08;;;1.88;;
16543;SDS011;8384;47.996;7.786;2023-04-07T12:50:46;1.93;;;1.83;;
16543;SDS011;8384;47.996;7.786;2023-04-07T12:53:11;1.80;;;1.70;;
16543;SDS011;8384;47.996;7.786;2023-04-07T12:55:37;1.70;;;1.60;;
16543;SDS011;8384;47.996;7.786;2023-04-07T12:58:02;1.60;;;1.50;;
16543;SDS011;8384;47.996;7.786;2023-04-07T13:00:28;1.50;;;1.40;;
16543;SDS011;8384;47.996;7.786;2023-04-07T13:02:53;2.10;;;2.00;;
16543;SDS011;8384;47.996;7.786;2023-04-07T13:05:19;1.90;;;1.80;;
16543;SDS011;8384;47.996;7.786;2023-04-07T13:07:44;1.77;;;1.67;;
16543;SDS011;8384;47.996;7.786;2023-04-07T13:10:09;1.50;;;1.40;;
16543;SDS011;8384;47.996;7.786;2023-04-07T13:12:35;1.80;;;1.70;;
16543;SDS011;8384;47.996;7.786;2023-04-07T13:15:00;1.63;;;1.53;;
16543;SDS011;8384;47.996;7.786;2023-04-07T13:17:26;1.60;;;1.50;;
16543;SDS011;8384;47.996;7.786;2023-04-07T13:19:52;1.50;;;1.40;;
16543;SDS011;8384;47.996;7.786;2023-04-07T13:22:18;1.70;;;1.60;;
16543;SDS011;8384;47.996;7.786;2023-04-07T13:24:43;1.80;;;1.70;;
16543;SDS011;8384;47.996;7.786;2023-04-07T13:27:08;1.50;;;1.40;;
16543;SDS011;8384;47.996;7.786;2023-04-07T13:29:34;1.60;;;1.50;;
16543;SDS011;8384;47.996;7.786;2023-04-07T13:32:03;1.50;;;1.40;;
16543;SDS011;8384;47.996;7.786;2023-04-07T13:34:37;1.23;;;1.13;;
16543;SDS011;8384;47.996;7.786;2023-04-07T13:37:03;1.30;;;1.20;;
16543;SDS011;8384;47.996;7.786;2023-04-07T13:39:28;1.30;;;1.20;;
16543;SDS011;8384;47.996;7.786;2023-04-07T13:41:55;0.90;;;0.90;;
16543;SDS011;8384;47.996;7.786;2023-04-07T13:44:20;0.93;;;0.93;;
16543;SDS011;8384;47.996;7.786;2023-04-07T13:46:46;1.07;;;0.80;;
16543;SDS011;8384;47.996;7.786;2023-04-07T13:49:11;1.10;;;1.00;;
16543;SDS011;8384;47.996;7.786;2023-04-07T13:51:38;1.00;;;0.90;;
16543;SDS011;8384;47.996;7.786;2023-04-07T13:54:04;0.97;;;0.97;;
16543;SDS011;8384;47.996;7.786;2023-04-07T13:56:29;0.80;;;0.80;;
16543;SDS011;8384;47.996;7.786;2023-04-07T13:58:55;0.90;;;0.90;;
16543;SDS011;8384;47.996;7.786;2023-04-07T14:01:20;1.00;;;1.00;;
16543;SDS011;8384;47.996;7.786;2023-04-07T14:03:46;0.90;;;0.90;;
16543;SDS011;8384;47.996;7.786;2023-04-07T14:06:11;1.00;;;1.00;;
16543;SDS011;8384;47.996;7.786;2023-04-07T14:08:36;0.90;;;0.90;;
16543;SDS011;8384;47.996;7.786;2023-04-07T14:11:02;1.05;;;0.98;;
16543;SDS011;8384;47.996;7.786;2023-04-07T14:13:27;0.90;;;0.90;;
16543;SDS011;8384;47.996;7.786;2023-04-07T14:15:52;0.90;;;0.90;;
16543;SDS011;8384;47.996;7.786;2023-04-07T14:18:17;1.03;;;1.00;;
16543;SDS011;8384;47.996;7.786;2023-04-07T14:20:43;1.00;;;1.00;;
16543;SDS011;8384;47.996;7.786;2023-04-07T14:23:08;1.27;;;0.82;;
16543;SDS011;8384;47.996;7.786;2023-04-07T14:25:34;1.37;;;1.27;;
16543;SDS011;8384;47.996;7.786;2023-04-07T14:27:59;1.40;;;1.30;;
16543;SDS011;8384;47.996;7.786;2023-04-07T14:30:24;1.40;;;1.30;;
16543;SDS011;8384;47.996;7.786;2023-04-07T14:32:50;1.40;;;1.30;;
16543;SDS011;8384;47.996;7.786;2023-04-07T14:35:15;1.53;;;1.40;;
16543;SDS011;8384;47.996;7.786;2023-04-07T14:37:40;1.50;;;1.40;;
16543;SDS011;8384;47.996;7.786;2023-04-07T14:40:06;1.53;;;1.43;;
16543;SDS011;8384;47.996;7.786;2023-04-07T14:42:31;1.20;;;1.20;;
16543;SDS011;8384;47.996;7.786;2023-04-07T14:44:57;1.40;;;1.30;;
16543;SDS011;8384;47.996;7.786;2023-04-07T14:47:23;1.35;;;1.25;;
16543;SDS011;8384;47.996;7.786;2023-04-07T14:49:49;1.40;;;1.30;;
16543;SDS011;8384;47.996;7.786;2023-04-07T14:52:14;1.53;;;1.43;;
16543;SDS011;8384;47.996;7.786;2023-04-07T14:54:40;1.50;;;1.40;;
16543;SDS011;8384;47.996;7.786;2023-04-07T14:57:05;1.40;;;1.30;;
16543;SDS011;8384;47.996;7.786;2023-04-07T14:59:30;1.53;;;1.43;;
16543;SDS011;8384;47.996;7.786;2023-04-07T15:01:56;1.67;;;1.57;;
16543;SDS011;8384;47.996;7.786;2023-04-07T15:04:21;1.50;;;1.40;;
16543;SDS011;8384;47.996;7.786;2023-04-07T15:06:46;1.27;;;1.20;;
16543;SDS011;8384;47.996;7.786;2023-04-07T15:09:11;1.47;;;1.37;;
16543;SDS011;8384;47.996;7.786;2023-04-07T15:11:37;1.77;;;1.67;;
16543;SDS011;8384;47.996;7.786;2023-04-07T15:14:02;1.77;;;1.67;;
16543;SDS011;8384;47.996;7.786;2023-04-07T15:16:29;1.48;;;1.30;;
16543;SDS011;8384;47.996;7.786;2023-04-07T15:18:55;1.40;;;1.30;;
16543;SDS011;8384;47.996;7.786;2023-04-07T15:21:20;2.00;;;1.90;;
16543;SDS011;8384;47.996;7.786;2023-04-07T15:23:45;1.40;;;1.30;;
16543;SDS011;8384;47.996;7.786;2023-04-07T15:26:11;1.50;;;1.40;;
16543;SDS011;8384;47.996;7.786;2023-04-07T15:28:36;1.90;;;1.40;;